sensor_id;sensor_type;location;lat;lon;timestamp;pressure;altitude;pressure_sealevel;temperature;humidity
22572;BME280;11452;53.368;14.658;2023-04-04T00:01:46;102569.67;;;1.90;62.97
22572;BME280;11452;53.368;14.658;2023-04-04T00:06:53;102565.70;;;1.88;63.21
22572;BME280;11452;53.368;14.658;2023-04-04T00:11:59;102561.28;;;1.86;63.20
22572;BME280;11452;53.368;14.658;2023-04-04T00:17:04;102556.01;;;1.86;63.19
22572;BME280;11452;53.368;14.658;2023-04-04T00:22:10;102552.92;;;1.82;63.24
22572;BME280;11452;53.368;14.658;2023-04-04T00:27:17;102548.87;;;1.72;63.17
22572;BME280;11452;53.368;14.658;2023-04-04T00:32:23;102541.78;;;1.64;63.15
22572;BME280;11452;53.368;14.658;2023-04-04T00:37:29;102533.41;;;1.61;63.55
22572;BME280;11452;53.368;14.658;2023-04-04T00:42:35;102543.56;;;1.66;63.58
22572;BME280;11452;53.368;14.658;2023-04-04T00:47:42;102543.06;;;1.61;63.50
22572;BME280;11452;53.368;14.658;2023-04-04T00:52:49;102532.91;;;1.56;63.75
22572;BME280;11452;53.368;14.658;2023-04-04T00:57:54;102534.20;;;1.54;63.59
22572;BME280;11452;53.368;14.658;2023-04-04T01:03:00;102529.33;;;1.51;63.96
22572;BME280;11452;53.368;14.658;2023-04-04T01:08:07;102522.29;;;1.47;63.96
22572;BME280;11452;53.368;14.658;2023-04-04T01:13:13;102513.07;;;1.50;64.35
22572;BME280;11452;53.368;14.658;2023-04-04T01:18:21;102507.81;;;1.48;64.33
22572;BME280;11452;53.368;14.658;2023-04-04T01:28:56;102509.46;;;1.38;64.46
22572;BME280;11452;53.368;14.658;2023-04-04T01:39:30;102503.14;;;1.21;64.51
22572;BME280;11452;53.368;14.658;2023-04-04T01:44:31;102503.92;;;1.11;64.85
22572;BME280;11452;53.368;14.658;2023-04-04T01:49:37;102500.84;;;1.10;65.13
22572;BME280;11452;53.368;14.658;2023-04-04T01:54:43;102497.18;;;0.99;65.11
22572;BME280;11452;53.368;14.658;2023-04-04T01:59:48;102494.45;;;0.90;65.24
22572;BME280;11452;53.368;14.658;2023-04-04T02:04:54;102486.59;;;0.94;65.46
22572;BME280;11452;53.368;14.658;2023-04-04T02:10:00;102485.98;;;0.80;65.35
22572;BME280;11452;53.368;14.658;2023-04-04T02:15:06;102485.48;;;0.73;65.73
22572;BME280;11452;53.368;14.658;2023-04-04T02:20:12;102477.11;;;0.70;65.86
22572;BME280;11452;53.368;14.658;2023-04-04T02:25:18;102482.80;;;0.69;66.14
22572;BME280;11452;53.368;14.658;2023-04-04T02:30:24;102475.83;;;0.75;66.58
22572;BME280;11452;53.368;14.658;2023-04-04T02:35:30;102474.53;;;0.76;66.44
22572;BME280;11452;53.368;14.658;2023-04-04T02:40:36;102468.02;;;0.81;66.65
22572;BME280;11452;53.368;14.658;2023-04-04T02:45:48;102469.83;;;0.85;66.68
22572;BME280;11452;53.368;14.658;2023-04-04T02:50:56;102469.67;;;0.71;66.75
22572;BME280;11452;53.368;14.658;2023-04-04T02:56:02;102470.36;;;0.58;66.76
22572;BME280;11452;53.368;14.658;2023-04-04T03:01:08;102464.61;;;0.52;67.17
22572;BME280;11452;53.368;14.658;2023-04-04T03:06:14;102461.05;;;0.49;67.39
22572;BME280;11452;53.368;14.658;2023-04-04T03:11:22;102455.66;;;0.40;67.33
22572;BME280;11452;53.368;14.658;2023-04-04T03:16:28;102453.93;;;0.42;67.43
22572;BME280;11452;53.368;14.658;2023-04-04T03:21:34;102456.17;;;0.45;67.66
22572;BME280;11452;53.368;14.658;2023-04-04T03:26:40;102452.71;;;0.48;67.90
22572;BME280;11452;53.368;14.658;2023-04-04T03:31:46;102444.70;;;0.40;68.01
22572;BME280;11452;53.368;14.658;2023-04-04T03:36:52;102439.80;;;0.32;68.26
22572;BME280;11452;53.368;14.658;2023-04-04T03:41:59;102432.41;;;0.36;68.64
22572;BME280;11452;53.368;14.658;2023-04-04T03:47:04;102428.47;;;0.36;68.80
22572;BME280;11452;53.368;14.658;2023-04-04T03:52:10;102416.70;;;0.44;68.90
22572;BME280;11452;53.368;14.658;2023-04-04T03:57:16;102411.47;;;0.45;68.96
22572;BME280;11452;53.368;14.658;2023-04-04T04:02:22;102402.96;;;0.30;69.18
22572;BME280;11452;53.368;14.658;2023-04-04T04:07:27;102406.09;;;0.34;69.28
22572;BME280;11452;53.368;14.658;2023-04-04T04:12:34;102402.66;;;0.42;69.46
22572;BME280;11452;53.368;14.658;2023-04-04T04:17:40;102392.69;;;0.50;69.61
22572;BME280;11452;53.368;14.658;2023-04-04T04:22:47;102397.58;;;0.55;69.57
22572;BME280;11452;53.368;14.658;2023-04-04T04:27:55;102394.55;;;0.60;69.86
22572;BME280;11452;53.368;14.658;2023-04-04T04:33:02;102390.76;;;0.73;69.82
22572;BME280;11452;53.368;14.658;2023-04-04T04:38:10;102394.16;;;0.64;69.52
22572;BME280;11452;53.368;14.658;2023-04-04T04:43:16;102384.00;;;0.59;69.67
22572;BME280;11452;53.368;14.658;2023-04-04T04:48:24;102379.25;;;0.64;69.86
22572;BME280;11452;53.368;14.658;2023-04-04T04:53:31;102385.01;;;0.68;70.04
22572;BME280;11452;53.368;14.658;2023-04-04T04:58:36;102386.85;;;0.79;70.52
22572;BME280;11452;53.368;14.658;2023-04-04T05:03:44;102382.61;;;0.93;70.58
22572;BME280;11452;53.368;14.658;2023-04-04T05:08:51;102381.81;;;1.00;70.46
22572;BME280;11452;53.368;14.658;2023-04-04T05:13:59;102376.91;;;0.93;70.35
22572;BME280;11452;53.368;14.658;2023-04-04T05:19:07;102378.83;;;1.08;70.53
22572;BME280;11452;53.368;14.658;2023-04-04T05:24:14;102385.95;;;1.21;70.65
22572;BME280;11452;53.368;14.658;2023-04-04T05:29:20;102386.92;;;1.29;70.68
22572;BME280;11452;53.368;14.658;2023-04-04T05:34:27;102391.83;;;1.41;70.88
22572;BME280;11452;53.368;14.658;2023-04-04T05:39:33;102387.09;;;1.54;70.94
22572;BME280;11452;53.368;14.658;2023-04-04T05:44:41;102395.09;;;1.67;71.11
22572;BME280;11452;53.368;14.658;2023-04-04T05:49:48;102396.55;;;1.84;71.37
22572;BME280;11452;53.368;14.658;2023-04-04T05:54:55;102386.98;;;2.06;71.43
22572;BME280;11452;53.368;14.658;2023-04-04T06:00:03;102386.22;;;2.28;71.42
22572;BME280;11452;53.368;14.658;2023-04-04T06:05:11;102382.77;;;2.46;71.39
22572;BME280;11452;53.368;14.658;2023-04-04T06:10:16;102390.34;;;2.71;71.59
22572;BME280;11452;53.368;14.658;2023-04-04T06:15:23;102391.25;;;2.85;71.39
22572;BME280;11452;53.368;14.658;2023-04-04T06:20:29;102393.47;;;2.98;70.80
22572;BME280;11452;53.368;14.658;2023-04-04T06:25:37;102384.70;;;3.09;70.98
22572;BME280;11452;53.368;14.658;2023-04-04T06:30:43;102389.11;;;3.23;70.84
22572;BME280;11452;53.368;14.658;2023-04-04T06:35:51;102388.69;;;3.34;70.56
22572;BME280;11452;53.368;14.658;2023-04-04T06:40:57;102385.56;;;3.53;70.41
22572;BME280;11452;53.368;14.658;2023-04-04T06:46:03;102381.17;;;3.68;70.01
22572;BME280;11452;53.368;14.658;2023-04-04T06:51:08;102391.69;;;3.94;69.69
22572;BME280;11452;53.368;14.658;2023-04-04T06:56:16;102380.70;;;3.87;69.02
22572;BME280;11452;53.368;14.658;2023-04-04T07:01:22;102379.37;;;3.81;68.26
22572;BME280;11452;53.368;14.658;2023-04-04T07:06:27;102380.27;;;3.89;68.65
22572;BME280;11452;53.368;14.658;2023-04-04T07:11:33;102374.00;;;4.10;67.81
22572;BME280;11452;53.368;14.658;2023-04-04T07:16:38;102366.42;;;4.35;66.76
22572;BME280;11452;53.368;14.658;2023-04-04T07:21:44;102366.42;;;4.35;66.76
22572;BME280;11452;53.368;14.658;2023-04-04T07:26:50;102381.34;;;4.50;67.25
22572;BME280;11452;53.368;14.658;2023-04-04T07:31:55;102367.20;;;4.59;66.90
22572;BME280;11452;53.368;14.658;2023-04-04T07:37:01;102367.09;;;4.78;66.46
22572;BME280;11452;53.368;14.658;2023-04-04T07:42:07;102364.77;;;4.96;67.03
22572;BME280;11452;53.368;14.658;2023-04-04T07:47:21;102368.80;;;5.43;65.35
22572;BME280;11452;53.368;14.658;2023-04-04T07:52:27;102366.55;;;5.48;65.03
22572;BME280;11452;53.368;14.658;2023-04-04T07:57:37;102357.95;;;5.70;66.06
22572;BME280;11452;53.368;14.658;2023-04-04T08:02:43;102358.45;;;5.64;63.48
22572;BME280;11452;53.368;14.658;2023-04-04T08:07:49;102361.37;;;5.36;64.15
22572;BME280;11452;53.368;14.658;2023-04-04T08:12:54;102349.80;;;5.92;65.19
22572;BME280;11452;53.368;14.658;2023-04-04T08:18:02;102343.18;;;6.28;64.51
22572;BME280;11452;53.368;14.658;2023-04-04T08:23:08;102340.36;;;6.40;62.28
22572;BME280;11452;53.368;14.658;2023-04-04T08:28:14;102335.69;;;6.57;63.06
22572;BME280;11452;53.368;14.658;2023-04-04T08:33:22;102335.73;;;6.21;61.76
22572;BME280;11452;53.368;14.658;2023-04-04T08:38:30;102333.42;;;6.30;61.71
22572;BME280;11452;53.368;14.658;2023-04-04T08:43:38;102327.49;;;6.42;61.17
22572;BME280;11452;53.368;14.658;2023-04-04T08:48:45;102320.45;;;6.38;60.62
22572;BME280;11452;53.368;14.658;2023-04-04T08:53:52;102320.91;;;6.38;59.88
22572;BME280;11452;53.368;14.658;2023-04-04T08:58:58;102328.14;;;6.59;60.85
22572;BME280;11452;53.368;14.658;2023-04-04T09:04:05;102318.82;;;6.61;60.14
22572;BME280;11452;53.368;14.658;2023-04-04T09:09:11;102308.16;;;6.64;58.51
22572;BME280;11452;53.368;14.658;2023-04-04T09:14:19;102307.30;;;6.62;57.80
22572;BME280;11452;53.368;14.658;2023-04-04T09:19:25;102306.73;;;6.69;57.31
22572;BME280;11452;53.368;14.658;2023-04-04T09:24:41;102304.13;;;6.94;58.75
22572;BME280;11452;53.368;14.658;2023-04-04T09:29:47;102305.98;;;6.60;54.88
22572;BME280;11452;53.368;14.658;2023-04-04T09:34:54;102305.55;;;6.88;55.46
22572;BME280;11452;53.368;14.658;2023-04-04T09:39:59;102293.45;;;6.97;55.80
22572;BME280;11452;53.368;14.658;2023-04-04T09:45:06;102298.78;;;6.97;51.79
22572;BME280;11452;53.368;14.658;2023-04-04T09:50:22;102300.93;;;6.72;53.56
22572;BME280;11452;53.368;14.658;2023-04-04T10:00:40;102289.99;;;7.43;53.73
22572;BME280;11452;53.368;14.658;2023-04-04T10:06:01;102285.61;;;7.16;52.01
22572;BME280;11452;53.368;14.658;2023-04-04T10:11:09;102282.11;;;7.13;51.76
22572;BME280;11452;53.368;14.658;2023-04-04T10:16:17;102275.69;;;7.24;51.98
22572;BME280;11452;53.368;14.658;2023-04-04T10:21:23;102269.33;;;7.35;52.19
22572;BME280;11452;53.368;14.658;2023-04-04T10:26:28;102267.25;;;7.50;51.02
22572;BME280;11452;53.368;14.658;2023-04-04T10:31:37;102260.33;;;7.64;50.72
22572;BME280;11452;53.368;14.658;2023-04-04T10:37:08;102258.02;;;7.46;50.67
22572;BME280;11452;53.368;14.658;2023-04-04T10:42:16;102257.73;;;8.04;51.75
22572;BME280;11452;53.368;14.658;2023-04-04T10:47:24;102239.64;;;8.41;50.43
22572;BME280;11452;53.368;14.658;2023-04-04T10:52:33;102237.86;;;7.99;48.57
22572;BME280;11452;53.368;14.658;2023-04-04T10:57:41;102236.55;;;7.79;48.66
22572;BME280;11452;53.368;14.658;2023-04-04T11:08:01;102220.91;;;8.04;48.43
22572;BME280;11452;53.368;14.658;2023-04-04T11:13:17;102214.72;;;8.22;49.52
22572;BME280;11452;53.368;14.658;2023-04-04T11:29:05;102219.06;;;8.07;47.94
22572;BME280;11452;53.368;14.658;2023-04-04T11:34:30;102215.13;;;7.83;47.86
22572;BME280;11452;53.368;14.658;2023-04-04T11:39:38;102200.63;;;8.17;48.54
22572;BME280;11452;53.368;14.658;2023-04-04T11:45:01;102188.88;;;8.47;47.72
22572;BME280;11452;53.368;14.658;2023-04-04T11:50:08;102197.92;;;8.19;47.53
22572;BME280;11452;53.368;14.658;2023-04-04T11:55:17;102190.42;;;8.38;48.05
22572;BME280;11452;53.368;14.658;2023-04-04T12:00:31;102177.06;;;8.75;47.43
22572;BME280;11452;53.368;14.658;2023-04-04T12:05:41;102175.21;;;8.60;45.23
22572;BME280;11452;53.368;14.658;2023-04-04T12:10:47;102176.54;;;8.43;46.40
22572;BME280;11452;53.368;14.658;2023-04-04T12:15:55;102166.47;;;8.36;45.53
22572;BME280;11452;53.368;14.658;2023-04-04T12:21:01;102159.22;;;8.60;46.45
22572;BME280;11452;53.368;14.658;2023-04-04T12:26:07;102156.02;;;8.82;45.90
22572;BME280;11452;53.368;14.658;2023-04-04T12:31:15;102150.17;;;8.67;45.67
22572;BME280;11452;53.368;14.658;2023-04-04T12:36:25;102150.28;;;8.26;44.46
22572;BME280;11452;53.368;14.658;2023-04-04T12:41:34;102136.19;;;8.40;45.18
22572;BME280;11452;53.368;14.658;2023-04-04T12:46:41;102129.04;;;8.42;44.96
22572;BME280;11452;53.368;14.658;2023-04-04T12:51:52;102129.77;;;8.49;44.49
22572;BME280;11452;53.368;14.658;2023-04-04T12:57:03;102131.02;;;8.70;44.52
22572;BME280;11452;53.368;14.658;2023-04-04T13:02:10;102115.56;;;8.82;43.98
22572;BME280;11452;53.368;14.658;2023-04-04T13:07:26;102108.95;;;8.47;44.68
22572;BME280;11452;53.368;14.658;2023-04-04T13:18:11;102094.30;;;9.43;45.48
22572;BME280;11452;53.368;14.658;2023-04-04T13:23:09;102087.92;;;9.47;44.85
22572;BME280;11452;53.368;14.658;2023-04-04T13:28:14;102082.80;;;9.41;45.15
22572;BME280;11452;53.368;14.658;2023-04-04T13:33:20;102077.25;;;9.47;44.61
22572;BME280;11452;53.368;14.658;2023-04-04T13:38:27;102073.66;;;9.48;44.41
22572;BME280;11452;53.368;14.658;2023-04-04T13:43:33;102074.54;;;9.19;43.51
22572;BME280;11452;53.368;14.658;2023-04-04T13:48:38;102063.87;;;9.63;44.63
22572;BME280;11452;53.368;14.658;2023-04-04T13:53:45;102066.23;;;9.44;43.85
22572;BME280;11452;53.368;14.658;2023-04-04T13:58:52;102064.27;;;8.56;43.05
22572;BME280;11452;53.368;14.658;2023-04-04T14:03:58;102057.52;;;8.25;43.03
22572;BME280;11452;53.368;14.658;2023-04-04T14:09:05;102054.39;;;8.08;43.74
22572;BME280;11452;53.368;14.658;2023-04-04T14:14:11;102052.22;;;8.24;44.69
22572;BME280;11452;53.368;14.658;2023-04-04T14:19:16;102042.76;;;8.64;45.69
22572;BME280;11452;53.368;14.658;2023-04-04T14:24:22;102044.09;;;8.64;44.52
22572;BME280;11452;53.368;14.658;2023-04-04T14:29:27;102039.31;;;9.08;45.09
22572;BME280;11452;53.368;14.658;2023-04-04T14:34:33;102033.43;;;8.64;43.13
22572;BME280;11452;53.368;14.658;2023-04-04T14:39:38;102036.33;;;8.55;42.91
22572;BME280;11452;53.368;14.658;2023-04-04T14:44:44;102031.72;;;8.45;42.95
22572;BME280;11452;53.368;14.658;2023-04-04T14:49:49;102036.67;;;8.43;40.97
22572;BME280;11452;53.368;14.658;2023-04-04T14:54:58;102034.12;;;8.38;40.70
22572;BME280;11452;53.368;14.658;2023-04-04T15:00:05;102029.28;;;8.36;40.25
22572;BME280;11452;53.368;14.658;2023-04-04T15:05:12;102025.32;;;8.68;39.56
22572;BME280;11452;53.368;14.658;2023-04-04T15:10:17;102029.09;;;8.76;39.52
22572;BME280;11452;53.368;14.658;2023-04-04T15:15:23;102014.44;;;8.91;39.05
22572;BME280;11452;53.368;14.658;2023-04-04T15:20:32;102019.98;;;9.14;38.81
22572;BME280;11452;53.368;14.658;2023-04-04T15:25:41;102012.30;;;8.89;38.23
22572;BME280;11452;53.368;14.658;2023-04-04T15:30:46;102014.77;;;8.95;38.14
22572;BME280;11452;53.368;14.658;2023-04-04T15:35:52;102018.28;;;9.12;37.78
22572;BME280;11452;53.368;14.658;2023-04-04T15:40:58;102010.97;;;8.89;37.29
22572;BME280;11452;53.368;14.658;2023-04-04T15:46:04;102012.80;;;8.87;36.54
22572;BME280;11452;53.368;14.658;2023-04-04T15:51:10;102005.44;;;8.95;36.28
22572;BME280;11452;53.368;14.658;2023-04-04T15:56:15;102010.88;;;8.76;36.34
22572;BME280;11452;53.368;14.658;2023-04-04T16:01:21;102018.52;;;9.04;37.03
22572;BME280;11452;53.368;14.658;2023-04-04T16:06:27;102014.94;;;9.05;36.75
22572;BME280;11452;53.368;14.658;2023-04-04T16:11:34;102015.94;;;9.16;37.42
22572;BME280;11452;53.368;14.658;2023-04-04T16:16:40;102012.77;;;9.32;37.78
22572;BME280;11452;53.368;14.658;2023-04-04T16:21:46;102005.17;;;9.33;37.35
22572;BME280;11452;53.368;14.658;2023-04-04T16:26:52;102020.09;;;9.26;37.30
22572;BME280;11452;53.368;14.658;2023-04-04T16:31:58;102013.17;;;9.33;38.24
22572;BME280;11452;53.368;14.658;2023-04-04T16:37:04;102006.06;;;8.90;37.14
22572;BME280;11452;53.368;14.658;2023-04-04T16:42:09;102005.16;;;8.42;37.28
22572;BME280;11452;53.368;14.658;2023-04-04T16:47:15;102010.59;;;8.20;37.42
22572;BME280;11452;53.368;14.658;2023-04-04T16:52:20;102003.31;;;8.10;37.67
22572;BME280;11452;53.368;14.658;2023-04-04T16:57:26;102009.66;;;7.87;38.37
22572;BME280;11452;53.368;14.658;2023-04-04T17:02:32;102001.31;;;7.65;38.70
22572;BME280;11452;53.368;14.658;2023-04-04T17:07:37;101995.50;;;7.67;38.74
22572;BME280;11452;53.368;14.658;2023-04-04T17:12:43;101995.68;;;7.42;38.97
22572;BME280;11452;53.368;14.658;2023-04-04T17:17:49;102000.25;;;7.35;38.95
22572;BME280;11452;53.368;14.658;2023-04-04T17:22:55;101990.88;;;7.19;39.37
22572;BME280;11452;53.368;14.658;2023-04-04T17:28:01;101995.34;;;7.17;39.60
22572;BME280;11452;53.368;14.658;2023-04-04T17:33:07;101990.78;;;7.03;40.14
22572;BME280;11452;53.368;14.658;2023-04-04T17:38:13;102000.81;;;6.88;40.46
22572;BME280;11452;53.368;14.658;2023-04-04T17:43:19;101990.36;;;6.81;40.59
22572;BME280;11452;53.368;14.658;2023-04-04T17:48:25;101991.55;;;6.66;41.14
22572;BME280;11452;53.368;14.658;2023-04-04T17:53:32;101988.72;;;6.74;41.40
22572;BME280;11452;53.368;14.658;2023-04-04T17:58:39;101993.23;;;6.69;41.28
22572;BME280;11452;53.368;14.658;2023-04-04T18:03:45;101992.14;;;6.58;41.67
22572;BME280;11452;53.368;14.658;2023-04-04T18:08:51;101993.52;;;6.55;41.93
22572;BME280;11452;53.368;14.658;2023-04-04T18:13:56;101984.52;;;6.40;42.38
22572;BME280;11452;53.368;14.658;2023-04-04T18:19:02;101987.39;;;6.29;42.67
22572;BME280;11452;53.368;14.658;2023-04-04T18:24:08;101990.95;;;6.28;42.91
22572;BME280;11452;53.368;14.658;2023-04-04T18:29:15;101989.75;;;6.20;43.00
22572;BME280;11452;53.368;14.658;2023-04-04T18:34:20;101996.59;;;6.10;43.17
22572;BME280;11452;53.368;14.658;2023-04-04T18:39:26;102003.13;;;5.87;44.00
22572;BME280;11452;53.368;14.658;2023-04-04T18:44:32;102000.06;;;5.85;43.92
22572;BME280;11452;53.368;14.658;2023-04-04T18:49:38;101993.64;;;5.73;44.28
22572;BME280;11452;53.368;14.658;2023-04-04T18:54:44;101986.22;;;5.66;44.24
22572;BME280;11452;53.368;14.658;2023-04-04T18:59:50;101999.72;;;5.51;44.39
22572;BME280;11452;53.368;14.658;2023-04-04T19:04:57;102001.64;;;5.40;44.43
22572;BME280;11452;53.368;14.658;2023-04-04T19:10:05;101999.27;;;5.20;45.03
22572;BME280;11452;53.368;14.658;2023-04-04T19:15:11;101999.27;;;5.20;45.03
22572;BME280;11452;53.368;14.658;2023-04-04T19:20:17;101990.52;;;4.82;45.68
22572;BME280;11452;53.368;14.658;2023-04-04T19:25:23;101990.52;;;4.82;45.68
22572;BME280;11452;53.368;14.658;2023-04-04T19:30:45;102004.43;;;4.63;46.17
22572;BME280;11452;53.368;14.658;2023-04-04T19:36:05;102004.43;;;4.63;46.17
22572;BME280;11452;53.368;14.658;2023-04-04T19:41:32;102008.64;;;4.40;46.70
22572;BME280;11452;53.368;14.658;2023-04-04T19:46:35;102003.41;;;4.34;47.11
22572;BME280;11452;53.368;14.658;2023-04-04T19:51:55;101995.00;;;4.36;47.82
22572;BME280;11452;53.368;14.658;2023-04-04T19:57:06;101989.72;;;4.35;48.25
22572;BME280;11452;53.368;14.658;2023-04-04T20:07:42;101985.80;;;4.30;48.97
22572;BME280;11452;53.368;14.658;2023-04-04T20:12:48;101985.36;;;4.29;49.11
22572;BME280;11452;53.368;14.658;2023-04-04T20:17:53;101978.09;;;4.49;49.47
22572;BME280;11452;53.368;14.658;2023-04-04T20:22:59;101979.37;;;4.54;49.59
22572;BME280;11452;53.368;14.658;2023-04-04T20:28:07;101972.27;;;4.58;49.69
22572;BME280;11452;53.368;14.658;2023-04-04T20:33:36;101977.42;;;4.68;49.68
22572;BME280;11452;53.368;14.658;2023-04-04T20:38:42;101965.45;;;4.74;49.70
22572;BME280;11452;53.368;14.658;2023-04-04T20:43:50;101965.06;;;4.69;49.90
22572;BME280;11452;53.368;14.658;2023-04-04T20:48:56;101961.41;;;4.80;50.34
22572;BME280;11452;53.368;14.658;2023-04-04T20:54:03;101962.72;;;4.82;50.01
22572;BME280;11452;53.368;14.658;2023-04-04T20:59:36;101962.72;;;4.82;50.01
22572;BME280;11452;53.368;14.658;2023-04-04T21:04:39;101956.16;;;4.76;50.27
22572;BME280;11452;53.368;14.658;2023-04-04T21:09:45;101963.67;;;4.75;50.38
22572;BME280;11452;53.368;14.658;2023-04-04T21:14:51;101956.59;;;4.77;50.40
22572;BME280;11452;53.368;14.658;2023-04-04T21:19:57;101947.36;;;4.74;50.43
22572;BME280;11452;53.368;14.658;2023-04-04T21:25:05;101951.59;;;4.87;50.27
22572;BME280;11452;53.368;14.658;2023-04-04T21:30:35;101947.63;;;4.85;49.78
22572;BME280;11452;53.368;14.658;2023-04-04T21:35:39;101939.66;;;4.88;49.87
22572;BME280;11452;53.368;14.658;2023-04-04T21:40:27;101938.20;;;4.99;49.82
22572;BME280;11452;53.368;14.658;2023-04-04T21:45:34;101925.41;;;5.27;49.51
22572;BME280;11452;53.368;14.658;2023-04-04T21:50:40;101931.45;;;5.07;49.02
22572;BME280;11452;53.368;14.658;2023-04-04T21:55:46;101929.88;;;5.23;49.09
22572;BME280;11452;53.368;14.658;2023-04-04T22:00:51;101920.59;;;5.23;48.61
22572;BME280;11452;53.368;14.658;2023-04-04T22:05:57;101920.59;;;5.23;48.61
22572;BME280;11452;53.368;14.658;2023-04-04T22:11:03;101914.83;;;5.26;48.48
22572;BME280;11452;53.368;14.658;2023-04-04T22:16:09;101914.83;;;5.26;48.48
22572;BME280;11452;53.368;14.658;2023-04-04T22:21:16;101913.05;;;5.26;48.26
22572;BME280;11452;53.368;14.658;2023-04-04T22:26:24;101913.05;;;5.26;48.26
22572;BME280;11452;53.368;14.658;2023-04-04T22:31:34;101915.08;;;5.09;48.37
22572;BME280;11452;53.368;14.658;2023-04-04T22:36:41;101909.64;;;5.19;48.46
22572;BME280;11452;53.368;14.658;2023-04-04T22:41:47;101904.91;;;5.10;48.52
22572;BME280;11452;53.368;14.658;2023-04-04T22:46:53;101903.95;;;5.15;48.46
22572;BME280;11452;53.368;14.658;2023-04-04T22:52:00;101900.10;;;5.06;48.66
22572;BME280;11452;53.368;14.658;2023-04-04T22:57:07;101897.35;;;5.14;48.77
22572;BME280;11452;53.368;14.658;2023-04-04T23:02:12;101890.77;;;5.11;49.06
22572;BME280;11452;53.368;14.658;2023-04-04T23:07:18;101890.77;;;5.11;49.06
22572;BME280;11452;53.368;14.658;2023-04-04T23:12:25;101887.20;;;5.13;49.13
22572;BME280;11452;53.368;14.658;2023-04-04T23:17:31;101887.20;;;5.13;49.13
22572;BME280;11452;53.368;14.658;2023-04-04T23:22:37;101879.16;;;5.19;49.56
22572;BME280;11452;53.368;14.658;2023-04-04T23:27:43;101879.16;;;5.19;49.56
22572;BME280;11452;53.368;14.658;2023-04-04T23:32:49;101885.67;;;5.26;49.83
22572;BME280;11452;53.368;14.658;2023-04-04T23:37:54;101874.22;;;5.23;50.08
22572;BME280;11452;53.368;14.658;2023-04-04T23:43:00;101870.05;;;5.37;49.97
22572;BME280;11452;53.368;14.658;2023-04-04T23:48:05;101864.13;;;5.47;50.39
22572;BME280;11452;53.368;14.658;2023-04-04T23:53:11;101864.13;;;5.47;50.39
22572;BME280;11452;53.368;14.658;2023-04-04T23:58:17;101856.09;;;5.51;50.21
